X  Luk Metar data     EKRN Bornholm Airport
Temperatur
2°C Temperatur
-3°C Duggpunkt
70% Fugtighed



Vind
1 M/S
3 MPT
5 KM/T
3 KNOB



320°
NV
Nuværende forhold

Klart Klart
Tryk 1018.92 (hPa) - 30.09 (inHg)
Sigt 6.2 (mil) - 10 (km)
Lufthavn
Lufthavnskode EKRN

Lokation: Bornholm Airport
Afstand: 20 (km)

Metar:
EKRN 021720Z AUTO 32003KT 9999 NCD 02/M03 Q1019

Tid: 02-02-2023 18:20 CET